sensor_id;sensor_type;location;lat;lon;timestamp;pressure;altitude;pressure_sealevel;temperature;humidity
47897;BME280;39629;51.400;5.494;2023-05-23T00:02:20;101703.34;;;13.68;100.00
47897;BME280;39629;51.400;5.494;2023-05-23T00:07:22;101705.97;;;13.67;100.00
47897;BME280;39629;51.400;5.494;2023-05-23T00:12:23;101702.47;;;13.65;100.00
47897;BME280;39629;51.400;5.494;2023-05-23T00:17:26;101714.78;;;13.66;100.00
47897;BME280;39629;51.400;5.494;2023-05-23T00:22:28;101718.34;;;13.68;100.00
47897;BME280;39629;51.400;5.494;2023-05-23T00:27:29;101716.56;;;13.67;100.00
47897;BME280;39629;51.400;5.494;2023-05-23T00:32:32;101723.63;;;13.69;100.00
47897;BME280;39629;51.400;5.494;2023-05-23T00:37:34;101720.09;;;13.66;100.00
47897;BME280;39629;51.400;5.494;2023-05-23T00:42:36;101720.09;;;13.62;100.00
47897;BME280;39629;51.400;5.494;2023-05-23T00:47:39;101714.81;;;13.58;100.00
47897;BME280;39629;51.400;5.494;2023-05-23T00:52:42;101713.94;;;13.62;100.00
47897;BME280;39629;51.400;5.494;2023-05-23T00:57:44;101721.88;;;13.63;100.00
47897;BME280;39629;51.400;5.494;2023-05-23T01:02:48;101735.97;;;13.64;100.00
47897;BME280;39629;51.400;5.494;2023-05-23T01:07:51;101742.13;;;13.63;100.00
47897;BME280;39629;51.400;5.494;2023-05-23T01:13:06;101740.38;;;13.65;100.00
47897;BME280;39629;51.400;5.494;2023-05-23T01:18:14;101743.88;;;13.64;100.00
47897;BME280;39629;51.400;5.494;2023-05-23T01:23:34;101741.25;;;13.69;100.00
47897;BME280;39629;51.400;5.494;2023-05-23T01:28:44;101748.31;;;13.67;100.00
47897;BME280;39629;51.400;5.494;2023-05-23T01:33:48;101748.28;;;13.70;100.00
47897;BME280;39629;51.400;5.494;2023-05-23T01:38:52;101753.59;;;13.63;100.00
47897;BME280;39629;51.400;5.494;2023-05-23T01:43:55;101758.91;;;13.63;100.00
47897;BME280;39629;51.400;5.494;2023-05-23T01:48:58;101765.94;;;13.58;100.00
47897;BME280;39629;51.400;5.494;2023-05-23T01:54:01;101759.75;;;13.52;100.00
47897;BME280;39629;51.400;5.494;2023-05-23T01:59:04;101762.41;;;13.49;100.00
47897;BME280;39629;51.400;5.494;2023-05-23T02:04:06;101760.66;;;13.43;100.00
47897;BME280;39629;51.400;5.494;2023-05-23T02:09:07;101769.47;;;13.43;100.00
47897;BME280;39629;51.400;5.494;2023-05-23T02:14:10;101775.63;;;13.41;100.00
47897;BME280;39629;51.400;5.494;2023-05-23T02:19:13;101779.19;;;13.38;100.00
47897;BME280;39629;51.400;5.494;2023-05-23T02:24:14;101780.03;;;13.39;100.00
47897;BME280;39629;51.400;5.494;2023-05-23T02:29:20;101785.31;;;13.26;100.00
47897;BME280;39629;51.400;5.494;2023-05-23T02:34:21;101787.09;;;13.31;100.00
47897;BME280;39629;51.400;5.494;2023-05-23T02:39:23;101797.66;;;13.29;100.00
47897;BME280;39629;51.400;5.494;2023-05-23T02:44:26;101793.28;;;13.33;100.00
47897;BME280;39629;51.400;5.494;2023-05-23T02:49:28;101792.38;;;13.24;100.00
47897;BME280;39629;51.400;5.494;2023-05-23T02:54:29;101793.25;;;13.26;100.00
47897;BME280;39629;51.400;5.494;2023-05-23T02:59:32;101795.00;;;13.34;100.00
47897;BME280;39629;51.400;5.494;2023-05-23T03:04:34;101784.41;;;13.21;100.00
47897;BME280;39629;51.400;5.494;2023-05-23T03:09:37;101792.38;;;13.27;100.00
47897;BME280;39629;51.400;5.494;2023-05-23T03:14:40;101788.84;;;13.25;100.00
47897;BME280;39629;51.400;5.494;2023-05-23T03:19:41;101785.31;;;13.31;100.00
47897;BME280;39629;51.400;5.494;2023-05-23T03:24:43;101795.91;;;13.20;100.00
47897;BME280;39629;51.400;5.494;2023-05-23T03:29:46;101805.56;;;13.21;100.00
47897;BME280;39629;51.400;5.494;2023-05-23T03:34:48;101809.13;;;13.22;100.00
47897;BME280;39629;51.400;5.494;2023-05-23T03:39:49;101807.34;;;13.24;100.00
47897;BME280;39629;51.400;5.494;2023-05-23T03:44:52;101818.81;;;13.26;100.00
47897;BME280;39629;51.400;5.494;2023-05-23T03:49:55;101813.53;;;13.26;100.00
47897;BME280;39629;51.400;5.494;2023-05-23T03:54:59;101810.00;;;13.28;100.00
47897;BME280;39629;51.400;5.494;2023-05-23T04:00:03;101814.41;;;13.29;100.00
47897;BME280;39629;51.400;5.494;2023-05-23T04:05:06;101824.97;;;13.28;100.00
47897;BME280;39629;51.400;5.494;2023-05-23T04:10:08;101824.97;;;13.31;100.00
47897;BME280;39629;51.400;5.494;2023-05-23T04:15:12;101824.97;;;13.26;100.00
47897;BME280;39629;51.400;5.494;2023-05-23T04:20:26;101826.75;;;13.29;100.00
47897;BME280;39629;51.400;5.494;2023-05-23T04:25:28;101836.44;;;13.30;100.00
47897;BME280;39629;51.400;5.494;2023-05-23T04:30:45;101832.94;;;13.33;100.00
47897;BME280;39629;51.400;5.494;2023-05-23T04:35:50;101840.88;;;13.34;100.00
47897;BME280;39629;51.400;5.494;2023-05-23T04:40:53;101843.50;;;13.36;100.00
47897;BME280;39629;51.400;5.494;2023-05-23T04:46:15;101847.91;;;13.41;100.00
47897;BME280;39629;51.400;5.494;2023-05-23T04:51:20;101850.56;;;13.43;100.00
47897;BME280;39629;51.400;5.494;2023-05-23T04:56:28;101855.84;;;13.40;100.00
47897;BME280;39629;51.400;5.494;2023-05-23T05:01:30;101860.25;;;13.36;100.00
47897;BME280;39629;51.400;5.494;2023-05-23T05:06:33;101866.41;;;13.37;100.00
47897;BME280;39629;51.400;5.494;2023-05-23T05:11:35;101866.41;;;13.37;100.00
47897;BME280;39629;51.400;5.494;2023-05-23T05:16:38;101870.81;;;13.39;100.00
47897;BME280;39629;51.400;5.494;2023-05-23T05:21:42;101884.03;;;13.38;100.00
47897;BME280;39629;51.400;5.494;2023-05-23T05:26:45;101876.09;;;13.32;100.00
47897;BME280;39629;51.400;5.494;2023-05-23T05:31:48;101884.91;;;13.31;100.00
47897;BME280;39629;51.400;5.494;2023-05-23T05:36:50;101885.81;;;13.33;100.00
47897;BME280;39629;51.400;5.494;2023-05-23T05:41:55;101894.56;;;13.24;100.00
47897;BME280;39629;51.400;5.494;2023-05-23T05:46:58;101899.84;;;13.22;100.00
47897;BME280;39629;51.400;5.494;2023-05-23T05:52:00;101908.59;;;13.03;100.00
47897;BME280;39629;51.400;5.494;2023-05-23T05:57:02;101905.94;;;13.00;100.00
47897;BME280;39629;51.400;5.494;2023-05-23T06:02:05;101907.66;;;12.91;100.00
47897;BME280;39629;51.400;5.494;2023-05-23T06:07:07;101919.09;;;12.90;100.00
47897;BME280;39629;51.400;5.494;2023-05-23T06:12:09;101920.84;;;12.87;100.00
47897;BME280;39629;51.400;5.494;2023-05-23T06:17:12;101926.16;;;12.91;100.00
47897;BME280;39629;51.400;5.494;2023-05-23T06:22:14;101930.53;;;12.85;100.00
47897;BME280;39629;51.400;5.494;2023-05-23T06:27:17;101938.50;;;12.92;100.00
47897;BME280;39629;51.400;5.494;2023-05-23T06:32:20;101940.16;;;12.76;100.00
47897;BME280;39629;51.400;5.494;2023-05-23T06:37:21;101948.16;;;12.87;100.00
47897;BME280;39629;51.400;5.494;2023-05-23T06:42:23;101956.06;;;12.84;100.00
47897;BME280;39629;51.400;5.494;2023-05-23T06:47:52;101962.97;;;12.62;100.00
47897;BME280;39629;51.400;5.494;2023-05-23T06:52:54;101971.75;;;12.59;100.00
47897;BME280;39629;51.400;5.494;2023-05-23T06:57:55;101977.88;;;12.52;100.00
47897;BME280;39629;51.400;5.494;2023-05-23T07:03:01;101989.31;;;12.51;100.00
47897;BME280;39629;51.400;5.494;2023-05-23T07:08:04;101999.75;;;12.43;100.00
47897;BME280;39629;51.400;5.494;2023-05-23T07:13:07;101992.72;;;12.42;100.00
47897;BME280;39629;51.400;5.494;2023-05-23T07:18:10;101997.84;;;12.25;100.00
47897;BME280;39629;51.400;5.494;2023-05-23T07:23:12;102008.38;;;12.22;100.00
47897;BME280;39629;51.400;5.494;2023-05-23T07:28:14;102006.56;;;12.15;100.00
47897;BME280;39629;51.400;5.494;2023-05-23T07:33:18;102015.34;;;12.13;100.00
47897;BME280;39629;51.400;5.494;2023-05-23T07:38:21;102015.44;;;12.25;100.00
47897;BME280;39629;51.400;5.494;2023-05-23T07:43:23;102023.63;;;12.48;100.00
47897;BME280;39629;51.400;5.494;2023-05-23T07:48:26;102021.09;;;12.67;100.00
47897;BME280;39629;51.400;5.494;2023-05-23T07:53:27;102021.19;;;12.76;100.00
47897;BME280;39629;51.400;5.494;2023-05-23T07:58:29;102031.03;;;13.03;100.00
47897;BME280;39629;51.400;5.494;2023-05-23T08:03:33;102029.44;;;13.32;100.00
47897;BME280;39629;51.400;5.494;2023-05-23T08:08:42;102031.34;;;13.63;100.00
47897;BME280;39629;51.400;5.494;2023-05-23T08:13:44;102025.22;;;13.80;100.00
47897;BME280;39629;51.400;5.494;2023-05-23T08:19:06;102046.44;;;14.05;100.00
47897;BME280;39629;51.400;5.494;2023-05-23T08:24:08;102044.72;;;14.01;100.00
47897;BME280;39629;51.400;5.494;2023-05-23T08:29:12;102042.81;;;13.78;100.00
47897;BME280;39629;51.400;5.494;2023-05-23T08:34:16;102042.94;;;13.96;100.00
47897;BME280;39629;51.400;5.494;2023-05-23T08:39:18;102049.09;;;13.95;100.00
47897;BME280;39629;51.400;5.494;2023-05-23T08:44:27;102045.47;;;13.69;100.00
47897;BME280;39629;51.400;5.494;2023-05-23T08:49:36;102046.34;;;13.71;100.00
47897;BME280;39629;51.400;5.494;2023-05-23T08:54:38;102056.91;;;13.65;100.00
47897;BME280;39629;51.400;5.494;2023-05-23T08:59:40;102065.88;;;14.04;100.00
47897;BME280;39629;51.400;5.494;2023-05-23T09:04:43;102066.75;;;13.96;100.00
47897;BME280;39629;51.400;5.494;2023-05-23T09:09:53;102069.44;;;14.18;100.00
47897;BME280;39629;51.400;5.494;2023-05-23T09:14:56;102062.41;;;14.33;100.00
47897;BME280;39629;51.400;5.494;2023-05-23T09:20:00;102072.81;;;13.77;100.00
47897;BME280;39629;51.400;5.494;2023-05-23T09:25:15;102077.34;;;13.98;100.00
47897;BME280;39629;51.400;5.494;2023-05-23T09:30:19;102076.47;;;14.04;100.00
47897;BME280;39629;51.400;5.494;2023-05-23T09:35:22;102073.00;;;14.54;100.00
47897;BME280;39629;51.400;5.494;2023-05-23T09:40:28;102072.13;;;14.83;100.00
47897;BME280;39629;51.400;5.494;2023-05-23T09:45:33;102081.81;;;14.35;100.00
47897;BME280;39629;51.400;5.494;2023-05-23T09:50:37;102081.81;;;14.28;100.00
47897;BME280;39629;51.400;5.494;2023-05-23T09:55:39;102083.59;;;14.48;100.00
47897;BME280;39629;51.400;5.494;2023-05-23T10:00:41;102071.22;;;14.87;100.00
47897;BME280;39629;51.400;5.494;2023-05-23T10:05:46;102088.03;;;14.92;100.00
47897;BME280;39629;51.400;5.494;2023-05-23T10:16:39;102098.63;;;14.64;100.00
47897;BME280;39629;51.400;5.494;2023-05-23T10:21:49;102090.69;;;14.92;100.00
47897;BME280;39629;51.400;5.494;2023-05-23T10:26:51;102087.13;;;14.89;100.00
47897;BME280;39629;51.400;5.494;2023-05-23T10:31:54;102087.09;;;15.06;100.00
47897;BME280;39629;51.400;5.494;2023-05-23T10:37:01;102084.28;;;15.78;100.00
47897;BME280;39629;51.400;5.494;2023-05-23T10:42:09;102091.97;;;16.29;100.00
47897;BME280;39629;51.400;5.494;2023-05-23T10:47:12;102082.91;;;16.58;100.00
47897;BME280;39629;51.400;5.494;2023-05-23T10:52:38;102084.25;;;15.83;100.00
47897;BME280;39629;51.400;5.494;2023-05-23T10:57:39;102080.31;;;16.49;100.00
47897;BME280;39629;51.400;5.494;2023-05-23T11:02:52;102076.25;;;17.09;100.00
47897;BME280;39629;51.400;5.494;2023-05-23T11:08:07;102072.91;;;16.90;100.00
47897;BME280;39629;51.400;5.494;2023-05-23T11:13:09;102069.78;;;17.34;100.00
47897;BME280;39629;51.400;5.494;2023-05-23T11:18:19;102078.84;;;17.15;100.00
47897;BME280;39629;51.400;5.494;2023-05-23T11:23:23;102070.19;;;17.75;100.00
47897;BME280;39629;51.400;5.494;2023-05-23T11:28:24;102075.41;;;17.84;100.00
47897;BME280;39629;51.400;5.494;2023-05-23T11:33:29;102071.66;;;18.60;100.00
47897;BME280;39629;51.400;5.494;2023-05-23T11:38:32;102079.22;;;17.63;100.00
47897;BME280;39629;51.400;5.494;2023-05-23T11:43:34;102077.81;;;18.01;100.00
47897;BME280;39629;51.400;5.494;2023-05-23T11:48:35;102072.09;;;18.85;100.00
47897;BME280;39629;51.400;5.494;2023-05-23T11:53:38;102086.72;;;18.02;100.00
47897;BME280;39629;51.400;5.494;2023-05-23T11:58:40;102083.63;;;17.67;95.85
47897;BME280;39629;51.400;5.494;2023-05-23T12:03:46;102083.31;;;17.89;96.86
47897;BME280;39629;51.400;5.494;2023-05-23T12:08:50;102082.44;;;18.51;99.44
47897;BME280;39629;51.400;5.494;2023-05-23T12:13:52;102081.59;;;18.49;94.25
47897;BME280;39629;51.400;5.494;2023-05-23T12:18:53;102084.22;;;17.09;96.19
47897;BME280;39629;51.400;5.494;2023-05-23T12:23:57;102094.38;;;17.58;95.47
47897;BME280;39629;51.400;5.494;2023-05-23T12:28:58;102093.81;;;17.28;96.95
47897;BME280;39629;51.400;5.494;2023-05-23T12:34:00;102098.38;;;17.14;95.12
47897;BME280;39629;51.400;5.494;2023-05-23T12:39:04;102101.09;;;17.04;98.76
47897;BME280;39629;51.400;5.494;2023-05-23T12:44:06;102101.38;;;17.65;94.41
47897;BME280;39629;51.400;5.494;2023-05-23T12:49:07;102096.00;;;17.68;95.54
47897;BME280;39629;51.400;5.494;2023-05-23T12:54:10;102107.66;;;17.60;94.12
47897;BME280;39629;51.400;5.494;2023-05-23T12:59:12;102116.13;;;17.09;96.26
47897;BME280;39629;51.400;5.494;2023-05-23T13:04:13;102115.03;;;18.08;93.84
47897;BME280;39629;51.400;5.494;2023-05-23T13:09:16;102114.97;;;17.42;87.93
47897;BME280;39629;51.400;5.494;2023-05-23T13:14:18;102104.06;;;18.29;79.18
47897;BME280;39629;51.400;5.494;2023-05-23T13:19:19;102108.50;;;17.63;83.65
47897;BME280;39629;51.400;5.494;2023-05-23T13:24:22;102108.38;;;17.74;83.28
47897;BME280;39629;51.400;5.494;2023-05-23T13:29:24;102091.69;;;18.83;77.21
47897;BME280;39629;51.400;5.494;2023-05-23T13:34:26;102100.13;;;17.16;66.40
47897;BME280;39629;51.400;5.494;2023-05-23T13:39:29;102098.38;;;17.92;67.76
47897;BME280;39629;51.400;5.494;2023-05-23T13:44:30;102093.47;;;18.84;64.36
47897;BME280;39629;51.400;5.494;2023-05-23T13:49:32;102102.13;;;18.44;60.81
47897;BME280;39629;51.400;5.494;2023-05-23T13:54:35;102104.38;;;18.09;64.00
47897;BME280;39629;51.400;5.494;2023-05-23T13:59:36;102115.31;;;17.86;61.85
47897;BME280;39629;51.400;5.494;2023-05-23T14:04:38;102101.06;;;18.54;58.85
47897;BME280;39629;51.400;5.494;2023-05-23T14:09:41;102102.06;;;17.83;60.45
47897;BME280;39629;51.400;5.494;2023-05-23T14:14:42;102103.00;;;17.77;62.89
47897;BME280;39629;51.400;5.494;2023-05-23T14:19:44;102088.25;;;18.76;61.30
47897;BME280;39629;51.400;5.494;2023-05-23T14:24:47;102100.44;;;18.33;60.27
47897;BME280;39629;51.400;5.494;2023-05-23T14:29:49;102103.28;;;17.54;62.54
47897;BME280;39629;51.400;5.494;2023-05-23T14:34:50;102104.06;;;17.62;63.86
47897;BME280;39629;51.400;5.494;2023-05-23T14:39:53;102116.69;;;18.16;61.29
47897;BME280;39629;51.400;5.494;2023-05-23T14:44:55;102108.38;;;17.76;61.30
47897;BME280;39629;51.400;5.494;2023-05-23T14:49:56;102100.53;;;18.85;58.10
47897;BME280;39629;51.400;5.494;2023-05-23T14:54:59;102108.47;;;18.89;58.30
47897;BME280;39629;51.400;5.494;2023-05-23T15:00:01;102105.63;;;17.80;59.55
47897;BME280;39629;51.400;5.494;2023-05-23T15:05:05;102103.09;;;17.69;57.85
47897;BME280;39629;51.400;5.494;2023-05-23T15:10:09;102106.22;;;18.02;59.76
47897;BME280;39629;51.400;5.494;2023-05-23T15:15:10;102096.72;;;17.83;57.73
47897;BME280;39629;51.400;5.494;2023-05-23T15:20:12;102100.22;;;17.86;58.28
47897;BME280;39629;51.400;5.494;2023-05-23T15:25:15;102096.94;;;16.79;63.34
47897;BME280;39629;51.400;5.494;2023-05-23T15:30:16;102095.41;;;16.47;64.19
47897;BME280;39629;51.400;5.494;2023-05-23T15:35:18;102098.28;;;16.08;64.04
47897;BME280;39629;51.400;5.494;2023-05-23T15:40:21;102103.31;;;16.55;62.68
47897;BME280;39629;51.400;5.494;2023-05-23T15:45:23;102094.00;;;17.07;61.42
47897;BME280;39629;51.400;5.494;2023-05-23T15:50:24;102099.00;;;17.39;62.14
47897;BME280;39629;51.400;5.494;2023-05-23T15:55:27;102102.19;;;16.85;63.22
47897;BME280;39629;51.400;5.494;2023-05-23T16:00:29;102102.19;;;16.88;58.72
47897;BME280;39629;51.400;5.494;2023-05-23T16:05:30;102101.91;;;17.13;63.52
47897;BME280;39629;51.400;5.494;2023-05-23T16:10:33;102102.22;;;16.82;59.93
47897;BME280;39629;51.400;5.494;2023-05-23T16:15:35;102096.38;;;16.29;62.99
47897;BME280;39629;51.400;5.494;2023-05-23T16:20:36;102110.53;;;16.37;65.99
47897;BME280;39629;51.400;5.494;2023-05-23T16:25:39;102119.63;;;15.82;66.39
47897;BME280;39629;51.400;5.494;2023-05-23T16:30:41;102118.75;;;15.77;65.89
47897;BME280;39629;51.400;5.494;2023-05-23T16:35:43;102127.72;;;15.45;66.58
47897;BME280;39629;51.400;5.494;2023-05-23T16:40:46;102107.41;;;15.36;65.29
47897;BME280;39629;51.400;5.494;2023-05-23T16:45:48;102110.03;;;15.39;64.68
47897;BME280;39629;51.400;5.494;2023-05-23T16:50:49;102110.03;;;15.47;65.46
47897;BME280;39629;51.400;5.494;2023-05-23T16:55:52;102120.59;;;15.65;64.75
47897;BME280;39629;51.400;5.494;2023-05-23T17:00:54;102110.09;;;15.31;63.31
47897;BME280;39629;51.400;5.494;2023-05-23T17:05:55;102116.28;;;15.01;65.43
47897;BME280;39629;51.400;5.494;2023-05-23T17:10:58;102118.94;;;14.98;67.05
47897;BME280;39629;51.400;5.494;2023-05-23T17:16:00;102122.47;;;15.23;66.19
47897;BME280;39629;51.400;5.494;2023-05-23T17:21:02;102131.31;;;14.88;64.74
47897;BME280;39629;51.400;5.494;2023-05-23T17:26:05;102128.66;;;14.88;66.79
47897;BME280;39629;51.400;5.494;2023-05-23T17:31:07;102128.66;;;14.80;66.91
47897;BME280;39629;51.400;5.494;2023-05-23T17:36:09;102123.34;;;14.68;68.65
47897;BME280;39629;51.400;5.494;2023-05-23T17:41:14;102136.56;;;14.37;69.94
47897;BME280;39629;51.400;5.494;2023-05-23T17:46:15;102140.00;;;14.10;69.83
47897;BME280;39629;51.400;5.494;2023-05-23T17:51:17;102141.84;;;14.39;68.30
47897;BME280;39629;51.400;5.494;2023-05-23T17:56:20;102146.22;;;14.20;69.02
47897;BME280;39629;51.400;5.494;2023-05-23T18:01:24;102145.34;;;14.22;66.32
47897;BME280;39629;51.400;5.494;2023-05-23T18:06:25;102140.88;;;14.03;63.64
47897;BME280;39629;51.400;5.494;2023-05-23T18:11:28;102147.03;;;13.95;62.37
47897;BME280;39629;51.400;5.494;2023-05-23T18:16:30;102152.22;;;13.80;61.70
47897;BME280;39629;51.400;5.494;2023-05-23T18:21:31;102152.06;;;13.55;63.08
47897;BME280;39629;51.400;5.494;2023-05-23T18:26:35;102164.53;;;13.73;66.62
47897;BME280;39629;51.400;5.494;2023-05-23T18:31:41;102172.22;;;13.35;65.92
47897;BME280;39629;51.400;5.494;2023-05-23T18:36:43;102171.28;;;13.29;68.33
47897;BME280;39629;51.400;5.494;2023-05-23T18:41:45;102178.22;;;13.10;68.69
47897;BME280;39629;51.400;5.494;2023-05-23T18:46:47;102167.59;;;13.06;70.84
47897;BME280;39629;51.400;5.494;2023-05-23T18:51:49;102170.00;;;12.80;69.23
47897;BME280;39629;51.400;5.494;2023-05-23T18:56:54;102178.81;;;12.78;69.84
47897;BME280;39629;51.400;5.494;2023-05-23T19:01:56;102181.22;;;12.54;70.42
47897;BME280;39629;51.400;5.494;2023-05-23T19:06:59;102182.91;;;12.50;71.87
47897;BME280;39629;51.400;5.494;2023-05-23T19:12:02;102191.50;;;12.34;72.61
47897;BME280;39629;51.400;5.494;2023-05-23T19:17:04;102201.84;;;12.15;75.32
47897;BME280;39629;51.400;5.494;2023-05-23T19:22:06;102211.41;;;12.05;75.71
47897;BME280;39629;51.400;5.494;2023-05-23T19:27:09;102218.28;;;11.92;77.42
47897;BME280;39629;51.400;5.494;2023-05-23T19:32:10;102232.97;;;11.75;77.91
47897;BME280;39629;51.400;5.494;2023-05-23T19:37:12;102245.16;;;11.67;75.76
47897;BME280;39629;51.400;5.494;2023-05-23T19:42:15;102244.94;;;11.54;77.55
47897;BME280;39629;51.400;5.494;2023-05-23T19:47:16;102244.72;;;11.40;78.68
47897;BME280;39629;51.400;5.494;2023-05-23T19:52:18;102258.56;;;11.27;78.94
47897;BME280;39629;51.400;5.494;2023-05-23T19:57:21;102251.38;;;11.18;79.62
47897;BME280;39629;51.400;5.494;2023-05-23T20:02:23;102268.75;;;11.07;81.27
47897;BME280;39629;51.400;5.494;2023-05-23T20:07:25;102265.13;;;11.00;81.59
47897;BME280;39629;51.400;5.494;2023-05-23T20:12:28;102279.06;;;10.95;83.07
47897;BME280;39629;51.400;5.494;2023-05-23T20:17:29;102281.47;;;10.84;85.39
47897;BME280;39629;51.400;5.494;2023-05-23T20:22:31;102286.69;;;10.81;84.19
47897;BME280;39629;51.400;5.494;2023-05-23T20:27:34;102288.25;;;10.71;84.32
47897;BME280;39629;51.400;5.494;2023-05-23T20:32:35;102298.47;;;10.55;88.46
47897;BME280;39629;51.400;5.494;2023-05-23T20:37:37;102301.94;;;10.54;89.08
47897;BME280;39629;51.400;5.494;2023-05-23T20:42:40;102304.38;;;10.45;88.45
47897;BME280;39629;51.400;5.494;2023-05-23T20:47:44;102305.16;;;10.41;90.00
47897;BME280;39629;51.400;5.494;2023-05-23T20:52:45;102313.00;;;10.38;90.21
47897;BME280;39629;51.400;5.494;2023-05-23T20:57:48;102313.63;;;10.26;93.32
47897;BME280;39629;51.400;5.494;2023-05-23T21:02:50;102307.47;;;10.26;95.56
47897;BME280;39629;51.400;5.494;2023-05-23T21:07:51;102305.47;;;10.14;93.03
47897;BME280;39629;51.400;5.494;2023-05-23T21:12:54;102307.00;;;10.04;99.21
47897;BME280;39629;51.400;5.494;2023-05-23T21:17:56;102305.09;;;9.97;96.93
47897;BME280;39629;51.400;5.494;2023-05-23T21:22:58;102305.81;;;9.91;99.03
47897;BME280;39629;51.400;5.494;2023-05-23T21:28:00;102302.78;;;9.74;100.00
47897;BME280;39629;51.400;5.494;2023-05-23T21:33:02;102302.63;;;9.66;100.00
47897;BME280;39629;51.400;5.494;2023-05-23T21:38:04;102307.09;;;9.70;100.00
47897;BME280;39629;51.400;5.494;2023-05-23T21:43:06;102302.41;;;9.59;100.00
47897;BME280;39629;51.400;5.494;2023-05-23T21:48:08;102310.94;;;9.48;100.00
47897;BME280;39629;51.400;5.494;2023-05-23T21:53:10;102317.81;;;9.43;100.00
47897;BME280;39629;51.400;5.494;2023-05-23T21:58:13;102314.91;;;9.32;100.00
47897;BME280;39629;51.400;5.494;2023-05-23T22:03:15;102303.59;;;9.35;100.00
47897;BME280;39629;51.400;5.494;2023-05-23T22:08:17;102318.19;;;9.24;100.00
47897;BME280;39629;51.400;5.494;2023-05-23T22:13:20;102304.78;;;9.14;100.00
47897;BME280;39629;51.400;5.494;2023-05-23T22:18:22;102302.78;;;9.04;100.00
47897;BME280;39629;51.400;5.494;2023-05-23T22:23:25;102312.31;;;9.00;100.00
47897;BME280;39629;51.400;5.494;2023-05-23T22:28:28;102310.47;;;8.98;100.00
47897;BME280;39629;51.400;5.494;2023-05-23T22:33:30;102319.03;;;8.92;100.00
47897;BME280;39629;51.400;5.494;2023-05-23T22:38:31;102312.44;;;8.75;100.00
47897;BME280;39629;51.400;5.494;2023-05-23T22:43:34;102319.06;;;8.62;100.00
47897;BME280;39629;51.400;5.494;2023-05-23T22:48:36;102329.38;;;8.56;100.00
47897;BME280;39629;51.400;5.494;2023-05-23T22:53:38;102310.69;;;8.45;100.00
47897;BME280;39629;51.400;5.494;2023-05-23T22:58:42;102312.81;;;8.28;100.00
47897;BME280;39629;51.400;5.494;2023-05-23T23:03:43;102305.38;;;8.13;100.00
47897;BME280;39629;51.400;5.494;2023-05-23T23:08:45;102305.47;;;8.16;100.00
47897;BME280;39629;51.400;5.494;2023-05-23T23:13:48;102300.66;;;8.01;100.00
47897;BME280;39629;51.400;5.494;2023-05-23T23:18:50;102304.03;;;7.97;100.00
47897;BME280;39629;51.400;5.494;2023-05-23T23:23:51;102308.81;;;7.83;100.00
47897;BME280;39629;51.400;5.494;2023-05-23T23:28:54;102310.34;;;7.76;100.00
47897;BME280;39629;51.400;5.494;2023-05-23T23:33:56;102310.31;;;7.49;100.00
47897;BME280;39629;51.400;5.494;2023-05-23T23:38:57;102309.13;;;7.39;100.00
47897;BME280;39629;51.400;5.494;2023-05-23T23:44:00;102304.44;;;7.29;100.00
47897;BME280;39629;51.400;5.494;2023-05-23T23:49:02;102310.34;;;7.23;100.00
47897;BME280;39629;51.400;5.494;2023-05-23T23:54:03;102316.97;;;7.13;100.00
47897;BME280;39629;51.400;5.494;2023-05-23T23:59:06;102305.91;;;7.21;100.00
